Spencer, Wisconsin
Current Conditions -  °F | °C
As of 3:54 AM on Sunday 21 Dec 2014 (Local Time) from KMFI Reporting Station
Haze Haze  
Wind Chill: 21°   Ceiling: 500
Heat Index: 29°   Visibility: 3mi
Dew Point: 26°   Wind: 8mph
Humidity: 89%   Direction: 160°SSE
Pressure: 30.09"   Gusts: NA
Location:  44.76°N, 90.3°W
Report Text: KMFI 210954Z AUTO 16007KT 3SM BR OVC005 M02/M03 A3009 RMK AO2 SLP206 T10171033
Loading
Personal Weather Stations






























Interactive Weather Map New forecast layout! Learn more

10-Day Weather Forecast

Advertisements
Track Severe Weather on mobile